sensor_id;sensor_type;location;lat;lon;timestamp;temperature;humidity
26342;DHT22;14054;50.108;8.640;2022-07-21T00:00:22;21.50;99.90
26342;DHT22;14054;50.108;8.640;2022-07-21T00:02:49;21.60;99.90
26342;DHT22;14054;50.108;8.640;2022-07-21T00:05:15;21.90;99.90
26342;DHT22;14054;50.108;8.640;2022-07-21T00:07:40;21.50;99.90
26342;DHT22;14054;50.108;8.640;2022-07-21T00:10:06;21.70;99.90
26342;DHT22;14054;50.108;8.640;2022-07-21T00:12:32;21.50;99.90
26342;DHT22;14054;50.108;8.640;2022-07-21T00:14:57;21.40;99.90
26342;DHT22;14054;50.108;8.640;2022-07-21T00:17:23;21.70;99.90
26342;DHT22;14054;50.108;8.640;2022-07-21T00:19:49;21.60;99.90
26342;DHT22;14054;50.108;8.640;2022-07-21T00:22:14;21.90;99.90
26342;DHT22;14054;50.108;8.640;2022-07-21T00:24:40;21.50;99.90
26342;DHT22;14054;50.108;8.640;2022-07-21T00:27:05;21.70;99.90
26342;DHT22;14054;50.108;8.640;2022-07-21T00:29:31;21.70;99.90
26342;DHT22;14054;50.108;8.640;2022-07-21T00:31:56;21.50;99.90
26342;DHT22;14054;50.108;8.640;2022-07-21T00:34:21;21.50;99.90
26342;DHT22;14054;50.108;8.640;2022-07-21T00:36:47;21.60;99.90
26342;DHT22;14054;50.108;8.640;2022-07-21T00:39:12;21.30;99.90
26342;DHT22;14054;50.108;8.640;2022-07-21T00:41:38;21.70;99.90
26342;DHT22;14054;50.108;8.640;2022-07-21T00:44:03;21.60;99.90
26342;DHT22;14054;50.108;8.640;2022-07-21T00:46:29;21.70;99.90
26342;DHT22;14054;50.108;8.640;2022-07-21T00:48:55;21.80;99.90
26342;DHT22;14054;50.108;8.640;2022-07-21T00:51:21;21.30;99.90
26342;DHT22;14054;50.108;8.640;2022-07-21T00:53:46;21.80;99.90
26342;DHT22;14054;50.108;8.640;2022-07-21T00:56:12;21.20;99.90
26342;DHT22;14054;50.108;8.640;2022-07-21T00:58:39;21.10;99.90
26342;DHT22;14054;50.108;8.640;2022-07-21T01:01:05;21.20;99.90
26342;DHT22;14054;50.108;8.640;2022-07-21T01:03:30;21.20;99.90
26342;DHT22;14054;50.108;8.640;2022-07-21T01:05:58;21.40;99.90
26342;DHT22;14054;50.108;8.640;2022-07-21T01:08:24;21.00;99.90
26342;DHT22;14054;50.108;8.640;2022-07-21T01:10:51;21.30;99.90
26342;DHT22;14054;50.108;8.640;2022-07-21T01:13:16;21.10;99.90
26342;DHT22;14054;50.108;8.640;2022-07-21T01:15:42;21.00;99.90
26342;DHT22;14054;50.108;8.640;2022-07-21T01:18:08;21.50;99.90
26342;DHT22;14054;50.108;8.640;2022-07-21T01:20:35;21.40;99.90
26342;DHT22;14054;50.108;8.640;2022-07-21T01:23:01;21.60;99.90
26342;DHT22;14054;50.108;8.640;2022-07-21T01:25:27;21.60;99.90
26342;DHT22;14054;50.108;8.640;2022-07-21T01:27:52;21.20;99.90
26342;DHT22;14054;50.108;8.640;2022-07-21T01:30:18;21.40;99.90
26342;DHT22;14054;50.108;8.640;2022-07-21T01:32:44;21.10;99.90
26342;DHT22;14054;50.108;8.640;2022-07-21T01:35:13;21.30;99.90
26342;DHT22;14054;50.108;8.640;2022-07-21T01:37:44;21.40;99.90
26342;DHT22;14054;50.108;8.640;2022-07-21T01:40:11;21.30;99.90
26342;DHT22;14054;50.108;8.640;2022-07-21T01:42:55;21.70;99.90
26342;DHT22;14054;50.108;8.640;2022-07-21T01:45:22;21.20;99.90
26342;DHT22;14054;50.108;8.640;2022-07-21T01:47:47;21.50;99.90
26342;DHT22;14054;50.108;8.640;2022-07-21T01:50:13;21.30;99.90
26342;DHT22;14054;50.108;8.640;2022-07-21T01:52:38;21.20;99.90
26342;DHT22;14054;50.108;8.640;2022-07-21T01:55:04;21.30;99.90
26342;DHT22;14054;50.108;8.640;2022-07-21T01:57:30;21.30;99.90
26342;DHT22;14054;50.108;8.640;2022-07-21T01:59:56;20.70;99.90
26342;DHT22;14054;50.108;8.640;2022-07-21T02:02:21;20.90;99.90
26342;DHT22;14054;50.108;8.640;2022-07-21T02:04:50;20.90;99.90
26342;DHT22;14054;50.108;8.640;2022-07-21T02:07:16;21.00;99.90
26342;DHT22;14054;50.108;8.640;2022-07-21T02:09:41;21.00;99.90
26342;DHT22;14054;50.108;8.640;2022-07-21T02:12:07;21.00;99.90
26342;DHT22;14054;50.108;8.640;2022-07-21T02:14:33;21.20;99.90
26342;DHT22;14054;50.108;8.640;2022-07-21T02:16:58;20.90;99.90
26342;DHT22;14054;50.108;8.640;2022-07-21T02:19:24;21.20;99.90
26342;DHT22;14054;50.108;8.640;2022-07-21T02:21:49;21.00;99.90
26342;DHT22;14054;50.108;8.640;2022-07-21T02:24:15;20.90;99.90
26342;DHT22;14054;50.108;8.640;2022-07-21T02:26:41;20.80;99.90
26342;DHT22;14054;50.108;8.640;2022-07-21T02:31:33;20.90;99.90
26342;DHT22;14054;50.108;8.640;2022-07-21T02:33:59;20.80;99.90
26342;DHT22;14054;50.108;8.640;2022-07-21T02:36:24;20.60;99.90
26342;DHT22;14054;50.108;8.640;2022-07-21T02:38:50;20.50;99.90
26342;DHT22;14054;50.108;8.640;2022-07-21T02:41:16;20.50;99.90
26342;DHT22;14054;50.108;8.640;2022-07-21T02:43:41;20.40;99.90
26342;DHT22;14054;50.108;8.640;2022-07-21T02:46:07;20.40;99.90
26342;DHT22;14054;50.108;8.640;2022-07-21T02:48:32;20.40;99.90
26342;DHT22;14054;50.108;8.640;2022-07-21T02:50:58;20.40;99.90
26342;DHT22;14054;50.108;8.640;2022-07-21T02:53:23;20.40;99.90
26342;DHT22;14054;50.108;8.640;2022-07-21T02:55:51;20.40;99.90
26342;DHT22;14054;50.108;8.640;2022-07-21T02:58:28;20.20;99.90
26342;DHT22;14054;50.108;8.640;2022-07-21T03:01:03;20.20;99.90
26342;DHT22;14054;50.108;8.640;2022-07-21T03:03:31;20.20;99.90
26342;DHT22;14054;50.108;8.640;2022-07-21T03:05:57;20.20;99.90
26342;DHT22;14054;50.108;8.640;2022-07-21T03:08:24;20.30;99.90
26342;DHT22;14054;50.108;8.640;2022-07-21T03:10:49;20.20;99.90
26342;DHT22;14054;50.108;8.640;2022-07-21T03:13:15;20.20;99.90
26342;DHT22;14054;50.108;8.640;2022-07-21T03:15:41;20.10;99.90
26342;DHT22;14054;50.108;8.640;2022-07-21T03:18:07;20.20;99.90
26342;DHT22;14054;50.108;8.640;2022-07-21T03:20:35;20.20;99.90
26342;DHT22;14054;50.108;8.640;2022-07-21T03:23:01;20.10;99.90
26342;DHT22;14054;50.108;8.640;2022-07-21T03:25:27;20.10;99.90
26342;DHT22;14054;50.108;8.640;2022-07-21T03:27:53;20.10;99.90
26342;DHT22;14054;50.108;8.640;2022-07-21T03:30:20;20.20;99.90
26342;DHT22;14054;50.108;8.640;2022-07-21T03:32:47;20.20;99.90
26342;DHT22;14054;50.108;8.640;2022-07-21T03:35:13;20.10;99.90
26342;DHT22;14054;50.108;8.640;2022-07-21T03:37:47;20.20;99.90
26342;DHT22;14054;50.108;8.640;2022-07-21T03:40:16;20.20;99.90
26342;DHT22;14054;50.108;8.640;2022-07-21T03:42:42;20.30;99.90
26342;DHT22;14054;50.108;8.640;2022-07-21T03:45:09;20.30;99.90
26342;DHT22;14054;50.108;8.640;2022-07-21T03:47:35;20.30;99.90
26342;DHT22;14054;50.108;8.640;2022-07-21T03:50:00;20.30;99.90
26342;DHT22;14054;50.108;8.640;2022-07-21T03:52:26;20.20;99.90
26342;DHT22;14054;50.108;8.640;2022-07-21T03:54:52;20.20;99.90
26342;DHT22;14054;50.108;8.640;2022-07-21T03:57:37;20.20;99.90
26342;DHT22;14054;50.108;8.640;2022-07-21T04:00:06;20.30;99.90
26342;DHT22;14054;50.108;8.640;2022-07-21T04:02:32;20.30;99.90
26342;DHT22;14054;50.108;8.640;2022-07-21T04:04:57;20.30;99.90
26342;DHT22;14054;50.108;8.640;2022-07-21T04:07:23;20.40;99.90
26342;DHT22;14054;50.108;8.640;2022-07-21T04:09:48;20.30;99.90
26342;DHT22;14054;50.108;8.640;2022-07-21T04:12:14;20.30;99.90
26342;DHT22;14054;50.108;8.640;2022-07-21T04:14:39;20.40;99.90
26342;DHT22;14054;50.108;8.640;2022-07-21T04:17:05;20.30;99.90
26342;DHT22;14054;50.108;8.640;2022-07-21T04:19:30;20.30;99.90
26342;DHT22;14054;50.108;8.640;2022-07-21T04:21:57;20.20;99.90
26342;DHT22;14054;50.108;8.640;2022-07-21T04:24:22;20.30;99.90
26342;DHT22;14054;50.108;8.640;2022-07-21T04:26:48;20.30;99.90
26342;DHT22;14054;50.108;8.640;2022-07-21T04:29:13;20.30;99.90
26342;DHT22;14054;50.108;8.640;2022-07-21T04:31:39;20.40;99.90
26342;DHT22;14054;50.108;8.640;2022-07-21T04:34:04;20.40;99.90
26342;DHT22;14054;50.108;8.640;2022-07-21T04:36:30;20.30;99.90
26342;DHT22;14054;50.108;8.640;2022-07-21T04:38:55;20.30;99.90
26342;DHT22;14054;50.108;8.640;2022-07-21T04:41:21;20.30;99.90
26342;DHT22;14054;50.108;8.640;2022-07-21T04:43:46;20.30;99.90
26342;DHT22;14054;50.108;8.640;2022-07-21T04:46:12;20.30;99.90
26342;DHT22;14054;50.108;8.640;2022-07-21T04:48:37;20.30;99.90
26342;DHT22;14054;50.108;8.640;2022-07-21T04:51:03;20.20;99.90
26342;DHT22;14054;50.108;8.640;2022-07-21T04:53:28;20.30;99.90
26342;DHT22;14054;50.108;8.640;2022-07-21T04:55:54;20.30;99.90
26342;DHT22;14054;50.108;8.640;2022-07-21T04:58:19;20.30;99.90
26342;DHT22;14054;50.108;8.640;2022-07-21T05:00:45;20.30;99.90
26342;DHT22;14054;50.108;8.640;2022-07-21T05:03:10;20.30;99.90
26342;DHT22;14054;50.108;8.640;2022-07-21T05:05:38;20.30;99.90
26342;DHT22;14054;50.108;8.640;2022-07-21T05:08:04;20.20;99.90
26342;DHT22;14054;50.108;8.640;2022-07-21T05:10:30;20.20;99.90
26342;DHT22;14054;50.108;8.640;2022-07-21T05:12:55;20.30;99.90
26342;DHT22;14054;50.108;8.640;2022-07-21T05:15:21;20.30;99.90
26342;DHT22;14054;50.108;8.640;2022-07-21T05:17:46;20.50;99.90
26342;DHT22;14054;50.108;8.640;2022-07-21T05:20:12;20.70;99.90
26342;DHT22;14054;50.108;8.640;2022-07-21T05:22:38;20.80;99.90
26342;DHT22;14054;50.108;8.640;2022-07-21T05:25:04;20.80;99.90
26342;DHT22;14054;50.108;8.640;2022-07-21T05:27:31;20.80;99.90
26342;DHT22;14054;50.108;8.640;2022-07-21T05:29:56;20.90;99.90
26342;DHT22;14054;50.108;8.640;2022-07-21T05:32:22;20.90;99.90
26342;DHT22;14054;50.108;8.640;2022-07-21T05:34:48;21.00;99.90
26342;DHT22;14054;50.108;8.640;2022-07-21T05:37:13;21.00;99.90
26342;DHT22;14054;50.108;8.640;2022-07-21T05:39:39;21.00;99.90
26342;DHT22;14054;50.108;8.640;2022-07-21T05:42:04;21.00;99.90
26342;DHT22;14054;50.108;8.640;2022-07-21T05:44:30;20.90;99.90
26342;DHT22;14054;50.108;8.640;2022-07-21T05:46:55;20.90;99.90
26342;DHT22;14054;50.108;8.640;2022-07-21T05:49:21;21.00;99.90
26342;DHT22;14054;50.108;8.640;2022-07-21T05:51:46;20.80;99.90
26342;DHT22;14054;50.108;8.640;2022-07-21T05:54:12;20.90;99.90
26342;DHT22;14054;50.108;8.640;2022-07-21T05:56:37;20.80;99.90
26342;DHT22;14054;50.108;8.640;2022-07-21T05:59:03;20.90;99.90
26342;DHT22;14054;50.108;8.640;2022-07-21T06:01:28;20.70;99.90
26342;DHT22;14054;50.108;8.640;2022-07-21T06:03:54;20.70;99.90
26342;DHT22;14054;50.108;8.640;2022-07-21T06:06:20;20.60;99.90
26342;DHT22;14054;50.108;8.640;2022-07-21T06:08:47;20.80;99.90
26342;DHT22;14054;50.108;8.640;2022-07-21T06:11:16;20.80;99.90
26342;DHT22;14054;50.108;8.640;2022-07-21T06:13:42;21.00;99.90
26342;DHT22;14054;50.108;8.640;2022-07-21T06:16:08;21.20;99.90
26342;DHT22;14054;50.108;8.640;2022-07-21T06:18:33;21.40;99.90
26342;DHT22;14054;50.108;8.640;2022-07-21T06:20:59;21.40;99.90
26342;DHT22;14054;50.108;8.640;2022-07-21T06:23:25;21.50;99.90
26342;DHT22;14054;50.108;8.640;2022-07-21T06:25:52;21.40;99.90
26342;DHT22;14054;50.108;8.640;2022-07-21T06:28:18;21.60;99.90
26342;DHT22;14054;50.108;8.640;2022-07-21T06:30:43;21.60;99.90
26342;DHT22;14054;50.108;8.640;2022-07-21T06:33:09;21.80;99.90
26342;DHT22;14054;50.108;8.640;2022-07-21T06:35:35;21.70;99.90
26342;DHT22;14054;50.108;8.640;2022-07-21T06:38:01;21.70;99.90
26342;DHT22;14054;50.108;8.640;2022-07-21T06:40:26;21.90;99.90
26342;DHT22;14054;50.108;8.640;2022-07-21T06:42:52;22.00;99.90
26342;DHT22;14054;50.108;8.640;2022-07-21T06:45:17;22.00;99.90
26342;DHT22;14054;50.108;8.640;2022-07-21T06:47:43;21.90;99.90
26342;DHT22;14054;50.108;8.640;2022-07-21T06:50:10;21.80;99.90
26342;DHT22;14054;50.108;8.640;2022-07-21T06:52:36;21.80;99.90
26342;DHT22;14054;50.108;8.640;2022-07-21T06:55:04;21.60;99.90
26342;DHT22;14054;50.108;8.640;2022-07-21T06:57:30;21.40;99.90
26342;DHT22;14054;50.108;8.640;2022-07-21T06:59:55;21.40;99.90
26342;DHT22;14054;50.108;8.640;2022-07-21T07:02:21;21.40;99.90
26342;DHT22;14054;50.108;8.640;2022-07-21T07:04:46;21.40;99.90
26342;DHT22;14054;50.108;8.640;2022-07-21T07:07:12;21.70;99.90
26342;DHT22;14054;50.108;8.640;2022-07-21T07:09:37;21.80;99.90
26342;DHT22;14054;50.108;8.640;2022-07-21T07:12:04;22.10;99.90
26342;DHT22;14054;50.108;8.640;2022-07-21T07:14:30;22.00;99.90
26342;DHT22;14054;50.108;8.640;2022-07-21T07:16:57;21.90;99.90
26342;DHT22;14054;50.108;8.640;2022-07-21T07:19:23;21.80;99.90
26342;DHT22;14054;50.108;8.640;2022-07-21T07:21:48;21.90;99.90
26342;DHT22;14054;50.108;8.640;2022-07-21T07:24:14;22.10;99.90
26342;DHT22;14054;50.108;8.640;2022-07-21T07:26:39;22.40;99.90
26342;DHT22;14054;50.108;8.640;2022-07-21T07:29:05;22.60;99.90
26342;DHT22;14054;50.108;8.640;2022-07-21T07:31:30;22.70;99.90
26342;DHT22;14054;50.108;8.640;2022-07-21T07:33:56;22.60;99.90
26342;DHT22;14054;50.108;8.640;2022-07-21T07:36:25;22.60;99.90
26342;DHT22;14054;50.108;8.640;2022-07-21T07:38:52;23.00;99.90
26342;DHT22;14054;50.108;8.640;2022-07-21T07:41:19;23.40;99.90
26342;DHT22;14054;50.108;8.640;2022-07-21T07:43:45;23.20;99.90
26342;DHT22;14054;50.108;8.640;2022-07-21T07:46:10;23.20;99.90
26342;DHT22;14054;50.108;8.640;2022-07-21T07:48:38;23.20;99.90
26342;DHT22;14054;50.108;8.640;2022-07-21T07:51:05;23.00;99.90
26342;DHT22;14054;50.108;8.640;2022-07-21T07:53:31;23.20;99.90
26342;DHT22;14054;50.108;8.640;2022-07-21T07:55:57;23.40;99.90
26342;DHT22;14054;50.108;8.640;2022-07-21T07:58:22;23.50;99.90
26342;DHT22;14054;50.108;8.640;2022-07-21T08:00:48;23.30;99.90
26342;DHT22;14054;50.108;8.640;2022-07-21T08:03:13;23.20;99.90
26342;DHT22;14054;50.108;8.640;2022-07-21T08:05:39;23.40;99.90
26342;DHT22;14054;50.108;8.640;2022-07-21T08:08:04;23.40;99.90
26342;DHT22;14054;50.108;8.640;2022-07-21T08:10:30;23.80;99.90
26342;DHT22;14054;50.108;8.640;2022-07-21T08:12:56;24.00;99.90
26342;DHT22;14054;50.108;8.640;2022-07-21T08:15:21;23.80;99.90
26342;DHT22;14054;50.108;8.640;2022-07-21T08:17:47;23.50;99.90
26342;DHT22;14054;50.108;8.640;2022-07-21T08:20:13;23.20;99.90
26342;DHT22;14054;50.108;8.640;2022-07-21T08:22:38;22.90;99.90
26342;DHT22;14054;50.108;8.640;2022-07-21T08:25:04;22.80;99.90
26342;DHT22;14054;50.108;8.640;2022-07-21T08:27:29;23.00;99.90
26342;DHT22;14054;50.108;8.640;2022-07-21T08:29:56;23.50;99.90
26342;DHT22;14054;50.108;8.640;2022-07-21T08:32:22;23.60;99.90
26342;DHT22;14054;50.108;8.640;2022-07-21T08:34:48;23.90;99.90
26342;DHT22;14054;50.108;8.640;2022-07-21T08:37:14;24.30;99.90
26342;DHT22;14054;50.108;8.640;2022-07-21T08:39:40;24.60;99.90
26342;DHT22;14054;50.108;8.640;2022-07-21T08:42:07;24.90;99.90
26342;DHT22;14054;50.108;8.640;2022-07-21T08:44:33;24.70;99.90
26342;DHT22;14054;50.108;8.640;2022-07-21T08:46:59;24.40;99.90
26342;DHT22;14054;50.108;8.640;2022-07-21T08:49:25;24.20;99.90
26342;DHT22;14054;50.108;8.640;2022-07-21T08:51:51;24.30;99.90
26342;DHT22;14054;50.108;8.640;2022-07-21T08:54:20;24.20;99.90
26342;DHT22;14054;50.108;8.640;2022-07-21T08:56:46;24.00;99.90
26342;DHT22;14054;50.108;8.640;2022-07-21T08:59:11;23.80;99.90
26342;DHT22;14054;50.108;8.640;2022-07-21T09:01:37;23.80;99.90
26342;DHT22;14054;50.108;8.640;2022-07-21T09:04:29;23.80;99.90
26342;DHT22;14054;50.108;8.640;2022-07-21T09:07:01;24.00;99.90
26342;DHT22;14054;50.108;8.640;2022-07-21T09:09:28;23.60;99.90
26342;DHT22;14054;50.108;8.640;2022-07-21T09:11:55;23.50;99.90
26342;DHT22;14054;50.108;8.640;2022-07-21T09:14:23;23.40;99.90
26342;DHT22;14054;50.108;8.640;2022-07-21T09:16:51;23.50;99.90
26342;DHT22;14054;50.108;8.640;2022-07-21T09:21:46;24.10;99.90
26342;DHT22;14054;50.108;8.640;2022-07-21T09:24:21;24.60;99.90
26342;DHT22;14054;50.108;8.640;2022-07-21T09:27:05;24.90;99.90
26342;DHT22;14054;50.108;8.640;2022-07-21T09:32:16;25.00;99.90
26342;DHT22;14054;50.108;8.640;2022-07-21T09:34:43;24.90;99.90
26342;DHT22;14054;50.108;8.640;2022-07-21T09:37:08;25.00;99.90
26342;DHT22;14054;50.108;8.640;2022-07-21T09:39:58;25.20;99.90
26342;DHT22;14054;50.108;8.640;2022-07-21T09:42:29;25.00;99.90
26342;DHT22;14054;50.108;8.640;2022-07-21T09:45:02;25.00;99.90
26342;DHT22;14054;50.108;8.640;2022-07-21T09:47:30;25.40;99.90
26342;DHT22;14054;50.108;8.640;2022-07-21T09:49:58;25.90;99.90
26342;DHT22;14054;50.108;8.640;2022-07-21T09:52:33;25.90;99.90
26342;DHT22;14054;50.108;8.640;2022-07-21T09:55:02;25.50;99.90
26342;DHT22;14054;50.108;8.640;2022-07-21T09:57:28;25.40;99.90
26342;DHT22;14054;50.108;8.640;2022-07-21T09:59:54;25.30;99.90
26342;DHT22;14054;50.108;8.640;2022-07-21T10:02:29;25.40;99.90
26342;DHT22;14054;50.108;8.640;2022-07-21T10:05:03;25.60;99.90
26342;DHT22;14054;50.108;8.640;2022-07-21T10:07:30;26.30;99.90
26342;DHT22;14054;50.108;8.640;2022-07-21T10:09:56;26.50;99.90
26342;DHT22;14054;50.108;8.640;2022-07-21T10:12:24;26.30;99.90
26342;DHT22;14054;50.108;8.640;2022-07-21T10:14:50;26.30;99.90
26342;DHT22;14054;50.108;8.640;2022-07-21T10:17:17;26.10;99.90
26342;DHT22;14054;50.108;8.640;2022-07-21T10:20:03;25.60;99.90
26342;DHT22;14054;50.108;8.640;2022-07-21T10:25:34;25.70;99.90
26342;DHT22;14054;50.108;8.640;2022-07-21T10:28:15;25.70;99.90
26342;DHT22;14054;50.108;8.640;2022-07-21T10:30:46;25.50;99.90
26342;DHT22;14054;50.108;8.640;2022-07-21T10:33:13;26.10;99.90
26342;DHT22;14054;50.108;8.640;2022-07-21T10:35:41;25.90;99.90
26342;DHT22;14054;50.108;8.640;2022-07-21T10:38:31;26.20;99.90
26342;DHT22;14054;50.108;8.640;2022-07-21T10:40:58;26.60;99.90
26342;DHT22;14054;50.108;8.640;2022-07-21T10:45:49;26.70;99.90
26342;DHT22;14054;50.108;8.640;2022-07-21T10:51:11;27.00;99.90
26342;DHT22;14054;50.108;8.640;2022-07-21T10:53:37;27.50;99.90
26342;DHT22;14054;50.108;8.640;2022-07-21T10:56:03;27.30;98.30
26342;DHT22;14054;50.108;8.640;2022-07-21T11:01:04;26.80;97.30
26342;DHT22;14054;50.108;8.640;2022-07-21T11:03:35;26.90;98.20
26342;DHT22;14054;50.108;8.640;2022-07-21T11:08:36;27.40;96.50
26342;DHT22;14054;50.108;8.640;2022-07-21T11:11:14;27.30;95.80
26342;DHT22;14054;50.108;8.640;2022-07-21T11:14:08;27.40;96.80
26342;DHT22;14054;50.108;8.640;2022-07-21T11:16:57;27.20;97.80
26342;DHT22;14054;50.108;8.640;2022-07-21T11:19:39;26.90;99.00
26342;DHT22;14054;50.108;8.640;2022-07-21T11:22:28;26.70;99.30
26342;DHT22;14054;50.108;8.640;2022-07-21T11:25:00;27.00;98.60
26342;DHT22;14054;50.108;8.640;2022-07-21T11:27:28;27.10;97.80
26342;DHT22;14054;50.108;8.640;2022-07-21T11:29:57;26.50;98.20
26342;DHT22;14054;50.108;8.640;2022-07-21T11:32:23;26.50;99.20
26342;DHT22;14054;50.108;8.640;2022-07-21T11:35:00;26.70;98.30
26342;DHT22;14054;50.108;8.640;2022-07-21T11:37:41;26.60;98.70
26342;DHT22;14054;50.108;8.640;2022-07-21T11:40:13;26.30;99.10
26342;DHT22;14054;50.108;8.640;2022-07-21T11:42:41;26.10;99.90
26342;DHT22;14054;50.108;8.640;2022-07-21T11:45:07;26.10;99.90
26342;DHT22;14054;50.108;8.640;2022-07-21T11:47:33;25.80;99.90
26342;DHT22;14054;50.108;8.640;2022-07-21T11:50:02;25.60;99.90
26342;DHT22;14054;50.108;8.640;2022-07-21T11:52:31;25.70;99.90
26342;DHT22;14054;50.108;8.640;2022-07-21T11:54:57;25.70;99.90
26342;DHT22;14054;50.108;8.640;2022-07-21T11:57:24;25.60;99.90
26342;DHT22;14054;50.108;8.640;2022-07-21T11:59:51;25.50;99.90
26342;DHT22;14054;50.108;8.640;2022-07-21T12:02:20;25.50;99.90
26342;DHT22;14054;50.108;8.640;2022-07-21T12:04:59;25.40;99.90
26342;DHT22;14054;50.108;8.640;2022-07-21T12:10:04;25.30;99.90
26342;DHT22;14054;50.108;8.640;2022-07-21T12:12:42;25.50;99.90
26342;DHT22;14054;50.108;8.640;2022-07-21T12:15:27;28.50;95.00
26342;DHT22;14054;50.108;8.640;2022-07-21T12:17:56;29.20;91.90
26342;DHT22;14054;50.108;8.640;2022-07-21T12:20:28;31.10;85.70
26342;DHT22;14054;50.108;8.640;2022-07-21T12:22:56;31.70;82.50
26342;DHT22;14054;50.108;8.640;2022-07-21T12:30:42;33.40;68.50
26342;DHT22;14054;50.108;8.640;2022-07-21T12:33:10;32.50;67.90
26342;DHT22;14054;50.108;8.640;2022-07-21T12:35:38;33.10;66.70
26342;DHT22;14054;50.108;8.640;2022-07-21T12:38:14;33.50;64.70
26342;DHT22;14054;50.108;8.640;2022-07-21T12:40:46;33.50;62.90
26342;DHT22;14054;50.108;8.640;2022-07-21T12:43:15;33.80;61.00
26342;DHT22;14054;50.108;8.640;2022-07-21T12:45:45;33.60;59.40
26342;DHT22;14054;50.108;8.640;2022-07-21T12:48:14;33.20;60.30
26342;DHT22;14054;50.108;8.640;2022-07-21T12:50:39;34.10;58.60
26342;DHT22;14054;50.108;8.640;2022-07-21T12:53:09;33.40;56.80
26342;DHT22;14054;50.108;8.640;2022-07-21T12:55:35;33.80;57.30
26342;DHT22;14054;50.108;8.640;2022-07-21T12:58:00;34.70;56.80
26342;DHT22;14054;50.108;8.640;2022-07-21T13:00:26;35.40;54.00
26342;DHT22;14054;50.108;8.640;2022-07-21T13:02:54;34.50;53.10
26342;DHT22;14054;50.108;8.640;2022-07-21T13:05:20;33.30;56.00
26342;DHT22;14054;50.108;8.640;2022-07-21T13:07:46;32.70;56.40
26342;DHT22;14054;50.108;8.640;2022-07-21T13:10:12;33.20;55.90
26342;DHT22;14054;50.108;8.640;2022-07-21T13:12:38;33.80;56.70
26342;DHT22;14054;50.108;8.640;2022-07-21T13:15:04;35.10;54.30
26342;DHT22;14054;50.108;8.640;2022-07-21T13:17:30;35.30;52.30
26342;DHT22;14054;50.108;8.640;2022-07-21T13:19:56;35.80;51.30
26342;DHT22;14054;50.108;8.640;2022-07-21T13:22:22;35.50;49.10
26342;DHT22;14054;50.108;8.640;2022-07-21T13:24:47;35.10;50.40
26342;DHT22;14054;50.108;8.640;2022-07-21T13:27:12;33.10;52.90
26342;DHT22;14054;50.108;8.640;2022-07-21T13:29:38;30.60;59.00
26342;DHT22;14054;50.108;8.640;2022-07-21T13:32:06;30.40;60.10
26342;DHT22;14054;50.108;8.640;2022-07-21T13:34:31;30.00;61.30
26342;DHT22;14054;50.108;8.640;2022-07-21T13:36:57;29.50;62.60
26342;DHT22;14054;50.108;8.640;2022-07-21T13:39:22;29.10;65.10
26342;DHT22;14054;50.108;8.640;2022-07-21T13:41:55;28.60;66.40
26342;DHT22;14054;50.108;8.640;2022-07-21T13:44:20;28.40;67.10
26342;DHT22;14054;50.108;8.640;2022-07-21T13:46:46;28.40;67.70
26342;DHT22;14054;50.108;8.640;2022-07-21T13:49:11;28.40;68.20
26342;DHT22;14054;50.108;8.640;2022-07-21T13:51:40;29.50;66.20
26342;DHT22;14054;50.108;8.640;2022-07-21T13:54:05;30.90;61.70
26342;DHT22;14054;50.108;8.640;2022-07-21T13:56:31;30.90;60.90
26342;DHT22;14054;50.108;8.640;2022-07-21T13:58:57;30.80;61.30
26342;DHT22;14054;50.108;8.640;2022-07-21T14:01:22;30.70;61.20
26342;DHT22;14054;50.108;8.640;2022-07-21T14:03:49;30.60;62.00
26342;DHT22;14054;50.108;8.640;2022-07-21T14:06:16;32.00;59.40
26342;DHT22;14054;50.108;8.640;2022-07-21T14:08:42;33.00;57.70
26342;DHT22;14054;50.108;8.640;2022-07-21T14:11:08;33.10;56.30
26342;DHT22;14054;50.108;8.640;2022-07-21T14:13:35;33.20;56.50
26342;DHT22;14054;50.108;8.640;2022-07-21T14:16:02;33.00;56.50
26342;DHT22;14054;50.108;8.640;2022-07-21T14:18:27;34.00;55.10
26342;DHT22;14054;50.108;8.640;2022-07-21T14:20:53;33.70;54.00
26342;DHT22;14054;50.108;8.640;2022-07-21T14:23:20;33.20;54.50
26342;DHT22;14054;50.108;8.640;2022-07-21T14:25:47;33.20;54.80
26342;DHT22;14054;50.108;8.640;2022-07-21T14:28:13;33.20;52.80
26342;DHT22;14054;50.108;8.640;2022-07-21T14:30:39;32.90;54.40
26342;DHT22;14054;50.108;8.640;2022-07-21T14:33:05;32.20;56.10
26342;DHT22;14054;50.108;8.640;2022-07-21T14:35:30;30.90;58.10
26342;DHT22;14054;50.108;8.640;2022-07-21T14:37:56;30.50;60.00
26342;DHT22;14054;50.108;8.640;2022-07-21T14:40:22;32.40;56.70
26342;DHT22;14054;50.108;8.640;2022-07-21T14:42:48;32.50;55.10
26342;DHT22;14054;50.108;8.640;2022-07-21T14:45:17;32.20;55.50
26342;DHT22;14054;50.108;8.640;2022-07-21T14:47:43;32.30;55.70
26342;DHT22;14054;50.108;8.640;2022-07-21T14:50:09;31.70;56.70
26342;DHT22;14054;50.108;8.640;2022-07-21T14:52:34;30.20;60.30
26342;DHT22;14054;50.108;8.640;2022-07-21T14:55:00;29.70;61.70
26342;DHT22;14054;50.108;8.640;2022-07-21T14:57:25;29.40;64.50
26342;DHT22;14054;50.108;8.640;2022-07-21T14:59:51;29.20;65.60
26342;DHT22;14054;50.108;8.640;2022-07-21T15:02:17;28.90;67.20
26342;DHT22;14054;50.108;8.640;2022-07-21T15:04:43;28.70;67.90
26342;DHT22;14054;50.108;8.640;2022-07-21T15:07:08;28.40;68.80
26342;DHT22;14054;50.108;8.640;2022-07-21T15:09:34;28.30;69.80
26342;DHT22;14054;50.108;8.640;2022-07-21T15:12:00;28.30;71.80
26342;DHT22;14054;50.108;8.640;2022-07-21T15:14:25;28.20;71.10
26342;DHT22;14054;50.108;8.640;2022-07-21T15:16:51;28.10;71.50
26342;DHT22;14054;50.108;8.640;2022-07-21T15:19:16;28.10;72.20
26342;DHT22;14054;50.108;8.640;2022-07-21T15:21:42;28.20;72.20
26342;DHT22;14054;50.108;8.640;2022-07-21T15:24:09;28.30;72.30
26342;DHT22;14054;50.108;8.640;2022-07-21T15:26:35;28.30;72.50
26342;DHT22;14054;50.108;8.640;2022-07-21T15:29:00;28.30;72.80
26342;DHT22;14054;50.108;8.640;2022-07-21T15:31:30;28.10;72.90
26342;DHT22;14054;50.108;8.640;2022-07-21T15:33:55;27.90;72.90
26342;DHT22;14054;50.108;8.640;2022-07-21T15:36:21;28.00;72.40
26342;DHT22;14054;50.108;8.640;2022-07-21T15:38:46;28.10;70.60
26342;DHT22;14054;50.108;8.640;2022-07-21T15:41:12;28.20;69.80
26342;DHT22;14054;50.108;8.640;2022-07-21T15:43:37;28.20;69.30
26342;DHT22;14054;50.108;8.640;2022-07-21T15:46:03;28.00;70.80
26342;DHT22;14054;50.108;8.640;2022-07-21T15:48:28;27.80;70.60
26342;DHT22;14054;50.108;8.640;2022-07-21T15:50:54;27.70;71.50
26342;DHT22;14054;50.108;8.640;2022-07-21T15:53:20;27.60;72.00
26342;DHT22;14054;50.108;8.640;2022-07-21T15:55:45;27.60;72.20
26342;DHT22;14054;50.108;8.640;2022-07-21T15:58:11;27.40;72.90